Iaciara, Brazil
Current Conditions -  °F | °C
As of 2:00 PM on Friday 24 Oct 2014 (Local Time) from SBBR Reporting Station
Scattered Clouds Scattered Clouds  
Wind Chill: 86°   Ceiling: Unl
Heat Index: 86°   Visibility: 6mi
Dew Point: 55°   Wind: 12mph
Humidity: 35%   Direction: 10°N
Pressure: 30.06"   Gusts: NA
Location:  14.1°S, 46.63°W
Report Text: SBBR 241600Z 01010KT 9999 SCT040 FEW045TCU 30/13 Q1018
Loading
Personal Weather Stations






























Interactive Weather Map
Tropical Storm Tracking
New forecast layout! Learn more

10-Day Weather Forecast

Advertisements
Track Severe Weather on mobile